createdAt,value
2023-02-01T00:01:09.461Z,100508.06
2023-02-01T00:03:36.630Z,100494.88
2023-02-01T00:06:03.681Z,100513.38
2023-02-01T00:08:30.264Z,100512.34
2023-02-01T00:11:04.317Z,100498.91
2023-02-01T00:13:32.275Z,100498.91
2023-02-01T00:16:07.942Z,100496.53
2023-02-01T00:18:35.250Z,100492.19
2023-02-01T00:21:02.188Z,100499.50
2023-02-01T00:23:28.785Z,100496.97
2023-02-01T00:25:55.421Z,100488.31
2023-02-01T00:28:21.997Z,100493.03
2023-02-01T00:30:58.437Z,100498.59
2023-02-01T00:33:25.045Z,100484.44
2023-02-01T00:35:52.029Z,100483.75
2023-02-01T00:38:18.612Z,100475.06
2023-02-01T00:40:45.216Z,100465.91
2023-02-01T00:43:11.779Z,100473.47
2023-02-01T00:45:38.420Z,100468.38
2023-02-01T00:48:05.339Z,100459.44
2023-02-01T00:50:31.872Z,100461.34
2023-02-01T00:52:58.558Z,100464.56
2023-02-01T00:55:25.207Z,100456.16
2023-02-01T00:57:51.742Z,100458.16
2023-02-01T01:00:19.571Z,100453.50
2023-02-01T01:02:46.808Z,100453.13
2023-02-01T01:05:13.318Z,100457.72
2023-02-01T01:07:39.954Z,100456.63
2023-02-01T01:10:06.924Z,100460.22
2023-02-01T01:12:33.570Z,100450.63
2023-02-01T01:15:00.246Z,100447.13
2023-02-01T01:17:26.749Z,100449.84
2023-02-01T01:19:53.332Z,100456.22
2023-02-01T01:22:20.010Z,100457.09
2023-02-01T01:24:46.546Z,100459.72
2023-02-01T01:27:13.061Z,100458.06
2023-02-01T01:29:39.637Z,100453.59
2023-02-01T01:32:06.199Z,100446.41
2023-02-01T01:34:32.913Z,100434.78
2023-02-01T01:36:59.487Z,100431.47
2023-02-01T01:39:26.057Z,100431.22
2023-02-01T01:41:52.646Z,100421.72
2023-02-01T01:44:57.290Z,100413.72
2023-02-01T01:47:25.427Z,100414.34
2023-02-01T01:49:52.063Z,100417.47
2023-02-01T01:52:19.650Z,100410.25
2023-02-01T01:54:54.270Z,100420.19
2023-02-01T01:57:36.241Z,100422.41
2023-02-01T02:00:14.662Z,100421.50
2023-02-01T02:02:47.273Z,100428.38
2023-02-01T02:05:14.930Z,100427.81
2023-02-01T02:07:46.553Z,100422.75
2023-02-01T02:10:16.432Z,100416.09
2023-02-01T02:12:46.309Z,100423.94
2023-02-01T02:15:16.800Z,100409.84
2023-02-01T02:17:58.341Z,100419.94
2023-02-01T02:20:37.152Z,100410.94
2023-02-01T02:23:15.912Z,100420.81
2023-02-01T02:26:19.603Z,100408.06
2023-02-01T02:28:49.185Z,100402.69
2023-02-01T02:31:54.358Z,100391.84
2023-02-01T02:34:45.184Z,100385.53
2023-02-01T02:37:17.713Z,100393.84
2023-02-01T02:40:09.966Z,100380.56
2023-02-01T02:43:25.110Z,100378.19
2023-02-01T02:46:20.817Z,100374.84
2023-02-01T02:48:51.172Z,100362.63
2023-02-01T02:51:45.063Z,100364.75
2023-02-01T02:54:35.530Z,100366.16
2023-02-01T02:57:25.422Z,100366.16
2023-02-01T03:00:12.242Z,100369.13
2023-02-01T03:02:57.867Z,100378.00
2023-02-01T03:05:24.466Z,100370.84
2023-02-01T03:08:11.849Z,100372.41
2023-02-01T03:11:03.561Z,100370.88
2023-02-01T03:14:00.197Z,100375.03
2023-02-01T03:16:37.701Z,100362.41
2023-02-01T03:19:15.347Z,100354.94
2023-02-01T03:24:46.444Z,100374.97
2023-02-01T03:27:24.298Z,100362.25
2023-02-01T03:30:18.973Z,100364.41
2023-02-01T03:33:00.281Z,100372.84
2023-02-01T03:35:35.967Z,100381.41
2023-02-01T03:38:09.272Z,100385.69
2023-02-01T03:40:38.414Z,100391.53
2023-02-01T03:43:08.880Z,100376.59
2023-02-01T03:45:42.674Z,100376.47
2023-02-01T03:48:10.368Z,100376.31
2023-02-01T03:50:40.789Z,100379.78
2023-02-01T03:53:16.009Z,100390.34
2023-02-01T03:55:43.221Z,100379.19
2023-02-01T03:58:16.221Z,100383.28
2023-02-01T04:00:47.279Z,100382.19
2023-02-01T04:03:13.929Z,100386.88
2023-02-01T04:05:40.452Z,100389.53
2023-02-01T04:08:07.030Z,100387.19
2023-02-01T04:10:33.935Z,100380.31
2023-02-01T04:13:00.536Z,100387.03
2023-02-01T04:15:27.184Z,100382.69
2023-02-01T04:17:53.832Z,100385.63
2023-02-01T04:20:20.642Z,100392.56
2023-02-01T04:22:47.420Z,100401.28
2023-02-01T04:25:14.033Z,100408.81
2023-02-01T04:27:43.375Z,100415.03
2023-02-01T04:30:13.280Z,100415.59
2023-02-01T04:32:40.361Z,100405.41
2023-02-01T04:35:07.828Z,100408.16
2023-02-01T04:37:34.908Z,100404.41
2023-02-01T04:40:01.534Z,100404.56
2023-02-01T04:42:28.123Z,100418.72
2023-02-01T04:44:54.822Z,100417.56
2023-02-01T04:47:21.384Z,100411.44
2023-02-01T04:49:47.949Z,100408.47
2023-02-01T04:52:14.525Z,100416.94
2023-02-01T04:54:41.139Z,100418.88
2023-02-01T04:57:07.713Z,100429.13
2023-02-01T04:59:34.381Z,100425.09
2023-02-01T05:02:00.926Z,100432.25
2023-02-01T05:04:27.580Z,100442.19
2023-02-01T05:06:55.202Z,100434.28
2023-02-01T05:09:22.882Z,100430.66
2023-02-01T05:12:07.955Z,100438.94
2023-02-01T05:14:34.748Z,100433.53
2023-02-01T05:17:01.303Z,100432.00
2023-02-01T05:19:27.914Z,100422.75
2023-02-01T05:21:54.506Z,100414.16
2023-02-01T05:24:21.593Z,100411.84
2023-02-01T05:26:49.559Z,100412.66
2023-02-01T05:29:17.696Z,100396.34
2023-02-01T05:31:46.451Z,100402.78
2023-02-01T05:34:13.623Z,100411.03
2023-02-01T05:36:40.355Z,100414.84
2023-02-01T05:39:07.061Z,100425.22
2023-02-01T05:41:33.917Z,100433.19
2023-02-01T05:44:00.508Z,100433.00
2023-02-01T05:46:27.097Z,100425.84
2023-02-01T05:48:53.772Z,100425.34
2023-02-01T05:51:20.487Z,100424.84
2023-02-01T05:53:47.048Z,100431.81
2023-02-01T05:56:13.625Z,100433.47
2023-02-01T05:58:40.187Z,100431.38
2023-02-01T06:01:06.893Z,100439.41
2023-02-01T06:03:33.625Z,100444.53
2023-02-01T06:06:02.108Z,100455.34
2023-02-01T06:08:29.264Z,100454.31
2023-02-01T06:11:05.122Z,100449.88
2023-02-01T06:13:34.424Z,100448.06
2023-02-01T06:16:02.098Z,100456.16
2023-02-01T06:18:28.792Z,100465.94
2023-02-01T06:20:56.879Z,100456.84
2023-02-01T06:23:24.749Z,100465.66
2023-02-01T06:25:53.319Z,100475.56
2023-02-01T06:28:20.137Z,100471.53
2023-02-01T06:30:47.193Z,100474.16
2023-02-01T06:33:16.830Z,100466.94
2023-02-01T06:35:46.752Z,100463.97
2023-02-01T06:38:13.255Z,100465.34
2023-02-01T06:40:40.705Z,100464.09
2023-02-01T06:43:07.224Z,100468.31
2023-02-01T06:45:33.791Z,100467.31
2023-02-01T06:48:01.589Z,100469.34
2023-02-01T06:50:28.782Z,100475.22
2023-02-01T06:52:56.439Z,100470.66
2023-02-01T06:55:23.088Z,100474.00
2023-02-01T06:57:54.318Z,100469.28
2023-02-01T07:00:21.788Z,100476.94
2023-02-01T07:02:48.486Z,100480.66
2023-02-01T07:05:15.484Z,100476.34
2023-02-01T07:07:42.147Z,100480.59
2023-02-01T07:10:09.485Z,100475.94
2023-02-01T07:12:36.784Z,100484.56
2023-02-01T07:15:04.641Z,100487.00
2023-02-01T07:17:31.295Z,100482.53
2023-02-01T07:19:59.718Z,100493.75
2023-02-01T07:22:27.487Z,100501.16
2023-02-01T07:24:54.033Z,100510.03
2023-02-01T07:27:21.090Z,100502.31
2023-02-01T07:29:47.666Z,100507.84
2023-02-01T07:32:14.237Z,100503.25
2023-02-01T07:34:40.856Z,100500.03
2023-02-01T07:37:07.641Z,100504.31
2023-02-01T07:39:34.210Z,100503.50
2023-02-01T07:42:00.738Z,100506.75
2023-02-01T07:44:27.305Z,100510.34
2023-02-01T07:46:53.891Z,100499.09
2023-02-01T07:49:20.461Z,100496.38
2023-02-01T07:51:47.035Z,100495.41
2023-02-01T07:54:13.585Z,100507.09
2023-02-01T07:56:40.126Z,100500.84
2023-02-01T07:59:08.016Z,100509.44
2023-02-01T08:01:34.636Z,100506.34
2023-02-01T08:04:03.620Z,100497.97
2023-02-01T08:06:32.404Z,100493.88
2023-02-01T08:08:59.501Z,100500.59
2023-02-01T08:11:27.123Z,100501.94
2023-02-01T08:13:54.563Z,100501.53
2023-02-01T08:16:22.434Z,100503.19
2023-02-01T08:18:49.197Z,100508.16
2023-02-01T08:21:22.368Z,100504.94
2023-02-01T08:23:49.284Z,100506.13
2023-02-01T08:26:24.983Z,100506.13
2023-02-01T08:28:58.153Z,100508.56
2023-02-01T08:31:26.254Z,100505.69
2023-02-01T08:33:56.646Z,100516.00
2023-02-01T08:36:25.139Z,100513.47
2023-02-01T08:38:52.295Z,100512.53
2023-02-01T08:41:21.751Z,100501.63
2023-02-01T08:43:49.094Z,100490.19
2023-02-01T08:46:16.413Z,100493.91
2023-02-01T08:48:42.997Z,100491.00
2023-02-01T08:51:12.774Z,100498.91
2023-02-01T08:53:42.315Z,100487.19
2023-02-01T08:56:10.380Z,100495.56
2023-02-01T08:58:37.038Z,100504.38
2023-02-01T09:01:08.953Z,100508.41
2023-02-01T09:03:35.611Z,100498.03
2023-02-01T09:06:07.454Z,100514.84
2023-02-01T09:08:35.197Z,100511.06
2023-02-01T09:11:07.698Z,100507.25
2023-02-01T09:13:35.043Z,100504.53
2023-02-01T09:16:01.875Z,100497.78
2023-02-01T09:18:28.492Z,100503.56
2023-02-01T09:20:55.079Z,100506.44
2023-02-01T09:23:21.606Z,100506.78
2023-02-01T09:25:51.355Z,100505.13
2023-02-01T09:28:18.865Z,100503.59
2023-02-01T09:30:45.597Z,100499.88
2023-02-01T09:33:12.273Z,100504.41
2023-02-01T09:35:39.298Z,100505.28
2023-02-01T09:38:05.920Z,100507.34
2023-02-01T09:40:35.431Z,100511.09
2023-02-01T09:43:07.929Z,100512.81
2023-02-01T09:45:42.093Z,100510.19
2023-02-01T09:48:33.580Z,100503.09
2023-02-01T09:51:03.951Z,100509.63
2023-02-01T09:53:35.591Z,100508.97
2023-02-01T09:56:11.787Z,100505.81
2023-02-01T09:58:43.188Z,100494.84
2023-02-01T10:01:23.286Z,100500.97
2023-02-01T10:03:51.041Z,100491.47
2023-02-01T10:06:36.316Z,100491.31
2023-02-01T10:09:09.103Z,100476.44
2023-02-01T10:11:50.992Z,100474.06
2023-02-01T10:14:32.741Z,100463.88
2023-02-01T10:17:30.266Z,100452.13
2023-02-01T10:20:19.113Z,100443.59
2023-02-01T10:23:13.709Z,100447.00
2023-02-01T10:25:39.313Z,100432.44
2023-02-01T10:28:06.271Z,100435.91
2023-02-01T10:30:44.039Z,100431.00
2023-02-01T10:33:22.463Z,100422.81
2023-02-01T10:35:55.474Z,100435.94
2023-02-01T10:38:31.076Z,100414.78
2023-02-01T10:41:13.027Z,100407.16
2023-02-01T10:43:40.297Z,100406.03
2023-02-01T10:46:08.522Z,100390.13
2023-02-01T10:48:35.997Z,100395.34
2023-02-01T10:51:15.926Z,100400.59
2023-02-01T10:53:54.400Z,100398.00
2023-02-01T10:56:25.079Z,100393.69
2023-02-01T10:58:52.665Z,100394.75
2023-02-01T11:01:34.877Z,100386.72
2023-02-01T11:04:03.655Z,100377.97
2023-02-01T11:07:14.501Z,100376.19
2023-02-01T11:09:42.161Z,100373.84
2023-02-01T11:12:30.151Z,100357.88
2023-02-01T11:15:04.131Z,100372.72
2023-02-01T11:17:40.928Z,100367.69
2023-02-01T11:20:15.494Z,100356.59
2023-02-01T11:22:48.418Z,100353.25
2023-02-01T11:25:18.626Z,100341.88
2023-02-01T11:27:54.435Z,100339.00
2023-02-01T11:30:37.610Z,100335.50
2023-02-01T11:33:06.913Z,100327.88
2023-02-01T11:35:39.108Z,100319.69
2023-02-01T11:38:14.878Z,100312.19
2023-02-01T11:40:41.545Z,100302.72
2023-02-01T11:43:15.137Z,100306.53
2023-02-01T11:45:41.768Z,100289.34
2023-02-01T11:48:26.356Z,100283.44
2023-02-01T11:51:38.542Z,100278.22
2023-02-01T11:54:11.078Z,100258.94
2023-02-01T11:56:48.039Z,100263.69
2023-02-01T11:59:22.244Z,100267.59
2023-02-01T12:02:06.946Z,100253.34
2023-02-01T12:05:03.854Z,100265.66
2023-02-01T12:07:55.180Z,100254.72
2023-02-01T12:10:30.128Z,100248.81
2023-02-01T12:13:14.947Z,100241.81
2023-02-01T12:15:54.691Z,100233.19
2023-02-01T12:18:56.516Z,100235.63
2023-02-01T12:21:32.556Z,100236.66
2023-02-01T12:24:05.148Z,100232.53
2023-02-01T12:26:51.195Z,100219.63
2023-02-01T12:29:17.748Z,100218.50
2023-02-01T12:32:05.802Z,100226.25
2023-02-01T12:34:54.205Z,100213.88
2023-02-01T12:37:56.734Z,100194.72
2023-02-01T12:40:58.595Z,100198.13
2023-02-01T12:43:46.385Z,100205.59
2023-02-01T12:46:24.492Z,100209.06
2023-02-01T12:49:21.321Z,100213.50
2023-02-01T12:51:51.259Z,100207.38
2023-02-01T12:54:31.691Z,100208.94
2023-02-01T12:57:06.474Z,100208.56
2023-02-01T12:59:42.711Z,100217.94
2023-02-01T13:02:43.800Z,100227.88
2023-02-01T13:05:21.227Z,100238.03
2023-02-01T13:08:11.453Z,100236.06
2023-02-01T13:10:44.927Z,100235.13
2023-02-01T13:13:21.255Z,100236.38
2023-02-01T13:15:58.259Z,100251.88
2023-02-01T13:18:33.363Z,100243.53
2023-02-01T13:21:08.107Z,100255.75
2023-02-01T13:23:38.984Z,100256.19
2023-02-01T13:26:05.700Z,100253.38
2023-02-01T13:28:52.995Z,100259.03
2023-02-01T13:31:28.398Z,100270.91
2023-02-01T13:34:10.896Z,100277.91
2023-02-01T13:37:06.149Z,100271.94
2023-02-01T13:39:51.151Z,100265.50
2023-02-01T13:42:32.069Z,100261.09
2023-02-01T13:45:02.716Z,100265.84
2023-02-01T13:47:33.024Z,100259.44
2023-02-01T13:50:12.706Z,100256.19
2023-02-01T13:52:43.630Z,100252.06
2023-02-01T13:55:30.095Z,100240.22
2023-02-01T13:58:05.173Z,100243.16
2023-02-01T14:00:31.676Z,100249.44
2023-02-01T14:03:01.408Z,100243.97
2023-02-01T14:05:27.993Z,100232.50
2023-02-01T14:08:10.667Z,100234.56
2023-02-01T14:10:48.817Z,100229.50
2023-02-01T14:13:25.631Z,100235.03
2023-02-01T14:16:04.192Z,100247.03
2023-02-01T14:18:41.955Z,100255.97
2023-02-01T14:21:29.336Z,100269.47
2023-02-01T14:24:11.135Z,100275.03
2023-02-01T14:26:49.210Z,100256.28
2023-02-01T14:29:36.076Z,100281.56
2023-02-01T14:32:20.486Z,100267.97
2023-02-01T14:34:47.097Z,100281.31
2023-02-01T14:37:19.664Z,100307.63
2023-02-01T14:39:46.206Z,100302.22
2023-02-01T14:42:34.349Z,100293.63
2023-02-01T14:45:26.236Z,100276.22
2023-02-01T14:48:08.285Z,100267.53
2023-02-01T14:50:36.773Z,100270.59
2023-02-01T14:53:15.937Z,100270.03
2023-02-01T14:56:02.757Z,100263.19
2023-02-01T14:58:35.555Z,100265.34
2023-02-01T15:01:16.348Z,100263.06
2023-02-01T15:04:10.743Z,100267.06
2023-02-01T15:06:39.313Z,100282.81
2023-02-01T15:09:13.695Z,100279.25
2023-02-01T15:12:01.266Z,100280.84
2023-02-01T15:14:31.549Z,100291.66
2023-02-01T15:16:58.131Z,100304.13
2023-02-01T15:19:26.967Z,100326.44
2023-02-01T15:21:56.279Z,100332.34
2023-02-01T15:24:23.426Z,100349.53
2023-02-01T15:26:51.100Z,100372.75
2023-02-01T15:29:19.150Z,100378.56
2023-02-01T15:31:49.591Z,100382.81
2023-02-01T15:34:17.140Z,100404.56
2023-02-01T15:37:00.412Z,100402.06
2023-02-01T15:39:30.282Z,100421.66
2023-02-01T15:41:59.434Z,100420.22
2023-02-01T15:44:33.324Z,100435.13
2023-02-01T15:47:01.151Z,100413.66
2023-02-01T15:49:29.810Z,100431.72
2023-02-01T15:51:58.176Z,100432.97
2023-02-01T15:54:32.198Z,100424.25
2023-02-01T15:57:02.217Z,100410.41
2023-02-01T15:59:56.306Z,100416.97
2023-02-01T16:02:35.727Z,100407.34
2023-02-01T16:05:03.849Z,100400.38
2023-02-01T16:07:32.625Z,100397.94
2023-02-01T16:10:08.034Z,100400.84
2023-02-01T16:12:48.619Z,100396.59
2023-02-01T16:15:15.336Z,100392.91
2023-02-01T16:17:42.131Z,100400.03
2023-02-01T16:20:10.126Z,100391.16
2023-02-01T16:22:36.690Z,100399.44
2023-02-01T16:25:03.420Z,100385.03
2023-02-01T16:27:29.985Z,100384.53
2023-02-01T16:29:57.881Z,100391.00
2023-02-01T16:32:24.921Z,100380.31
2023-02-01T16:34:51.545Z,100374.69
2023-02-01T16:37:22.291Z,100373.75
2023-02-01T16:39:49.007Z,100370.31
2023-02-01T16:42:17.240Z,100373.16
2023-02-01T16:44:44.583Z,100364.81
2023-02-01T16:47:22.300Z,100359.44
2023-02-01T16:49:49.969Z,100366.88
2023-02-01T16:52:23.910Z,100362.94
2023-02-01T16:54:50.750Z,100363.69
2023-02-01T16:57:20.785Z,100365.19
2023-02-01T16:59:47.602Z,100366.22
2023-02-01T17:02:16.630Z,100362.66
2023-02-01T17:04:44.066Z,100369.50
2023-02-01T17:07:16.452Z,100357.56
2023-02-01T17:09:43.188Z,100354.81
2023-02-01T17:12:28.256Z,100348.53
2023-02-01T17:14:54.923Z,100351.38
2023-02-01T17:17:29.082Z,100346.59
2023-02-01T17:20:04.822Z,100347.41
2023-02-01T17:22:31.405Z,100342.91
2023-02-01T17:24:57.975Z,100342.28
2023-02-01T17:27:24.655Z,100352.94
2023-02-01T17:29:51.673Z,100348.69
2023-02-01T17:32:24.362Z,100349.31
2023-02-01T17:34:51.172Z,100339.41
2023-02-01T17:37:30.629Z,100332.91
2023-02-01T17:39:57.912Z,100345.97
2023-02-01T17:42:26.819Z,100338.69
2023-02-01T17:44:57.857Z,100325.03
2023-02-01T17:47:24.499Z,100334.34
2023-02-01T17:49:56.382Z,100320.25
2023-02-01T17:52:25.667Z,100317.41
2023-02-01T17:54:54.143Z,100319.28
2023-02-01T17:57:22.244Z,100320.41
2023-02-01T17:59:49.012Z,100327.41
2023-02-01T18:02:21.014Z,100319.53
2023-02-01T18:04:49.383Z,100314.31
2023-02-01T18:07:16.619Z,100319.81
2023-02-01T18:09:44.815Z,100319.16
2023-02-01T18:12:23.772Z,100323.03
2023-02-01T18:14:50.366Z,100323.19
2023-02-01T18:17:16.972Z,100313.34
2023-02-01T18:19:43.543Z,100316.34
2023-02-01T18:22:22.793Z,100320.59
2023-02-01T18:24:49.504Z,100314.53
2023-02-01T18:27:16.107Z,100313.41
2023-02-01T18:29:42.724Z,100310.97
2023-02-01T18:32:10.759Z,100308.25
2023-02-01T18:34:37.347Z,100311.16
2023-02-01T18:37:03.925Z,100307.16
2023-02-01T18:39:30.547Z,100304.44
2023-02-01T18:41:57.143Z,100304.31
2023-02-01T18:44:24.263Z,100314.66
2023-02-01T18:46:50.810Z,100308.94
2023-02-01T18:49:18.825Z,100303.09
2023-02-01T18:51:46.772Z,100307.41
2023-02-01T18:54:14.339Z,100306.81
2023-02-01T18:56:40.981Z,100307.53
2023-02-01T18:59:09.056Z,100306.41
2023-02-01T19:01:35.683Z,100300.94
2023-02-01T19:04:07.337Z,100299.47
2023-02-01T19:06:36.531Z,100298.47
2023-02-01T19:09:03.107Z,100303.81
2023-02-01T19:11:29.864Z,100306.59
2023-02-01T19:13:56.450Z,100296.19
2023-02-01T19:16:23.057Z,100293.03
2023-02-01T19:18:53.354Z,100293.88
2023-02-01T19:21:20.011Z,100290.53
2023-02-01T19:23:46.684Z,100288.69
2023-02-01T19:26:15.319Z,100294.97
2023-02-01T19:28:44.642Z,100285.19
2023-02-01T19:31:11.383Z,100278.03
2023-02-01T19:33:38.046Z,100277.34
2023-02-01T19:36:09.286Z,100279.34
2023-02-01T19:38:36.400Z,100280.16
2023-02-01T19:41:03.143Z,100280.72
2023-02-01T19:43:29.729Z,100276.75
2023-02-01T19:45:57.548Z,100285.72
2023-02-01T19:48:24.521Z,100278.41
2023-02-01T19:50:51.505Z,100282.03
2023-02-01T19:53:19.387Z,100283.22
2023-02-01T19:55:47.047Z,100280.59
2023-02-01T19:58:14.550Z,100284.38
2023-02-01T20:00:40.743Z,100276.09
2023-02-01T20:03:07.476Z,100273.66
2023-02-01T20:05:36.943Z,100283.88
2023-02-01T20:08:03.793Z,100288.25
2023-02-01T20:10:30.553Z,100287.59
2023-02-01T20:12:57.086Z,100282.41
2023-02-01T20:15:27.062Z,100274.88
2023-02-01T20:17:53.708Z,100271.59
2023-02-01T20:20:20.311Z,100270.91
2023-02-01T20:22:46.935Z,100272.81
2023-02-01T20:25:14.743Z,100265.00
2023-02-01T20:27:42.222Z,100274.75
2023-02-01T20:30:09.627Z,100275.66
2023-02-01T20:32:36.215Z,100279.16
2023-02-01T20:35:02.793Z,100287.03
2023-02-01T20:37:29.379Z,100283.38
2023-02-01T20:39:56.104Z,100285.75
2023-02-01T20:42:22.630Z,100282.13
2023-02-01T20:44:49.176Z,100278.44
2023-02-01T20:47:15.773Z,100280.97
2023-02-01T20:49:42.404Z,100278.47
2023-02-01T20:52:09.010Z,100275.31
2023-02-01T20:54:35.586Z,100277.19
2023-02-01T20:57:02.391Z,100271.88
2023-02-01T20:59:28.923Z,100273.63
2023-02-01T21:01:55.535Z,100273.72
2023-02-01T21:04:29.908Z,100285.41
2023-02-01T21:06:57.961Z,100279.06
2023-02-01T21:09:25.588Z,100278.41
2023-02-01T21:11:53.318Z,100270.19
2023-02-01T21:14:20.450Z,100266.63
2023-02-01T21:16:48.367Z,100264.28
2023-02-01T21:19:16.462Z,100265.00
2023-02-01T21:21:43.197Z,100261.59
2023-02-01T21:24:09.789Z,100261.88
2023-02-01T21:26:42.395Z,100257.59
2023-02-01T21:29:14.432Z,100265.72
2023-02-01T21:31:42.714Z,100265.22
2023-02-01T21:34:09.911Z,100267.09
2023-02-01T21:36:36.673Z,100278.63
2023-02-01T21:39:06.321Z,100281.72
2023-02-01T21:41:53.566Z,100274.88
2023-02-01T21:44:20.635Z,100276.50
2023-02-01T21:46:48.029Z,100281.03
2023-02-01T21:49:15.088Z,100281.47
2023-02-01T21:51:42.413Z,100287.72
2023-02-01T21:54:10.868Z,100283.41
2023-02-01T21:56:38.315Z,100280.97
2023-02-01T21:59:05.138Z,100287.00
2023-02-01T22:01:32.477Z,100289.97
2023-02-01T22:03:59.136Z,100286.53
2023-02-01T22:06:29.116Z,100295.97
2023-02-01T22:08:56.205Z,100290.47
2023-02-01T22:11:23.309Z,100285.13
2023-02-01T22:13:50.002Z,100288.28
2023-02-01T22:16:18.268Z,100274.91
2023-02-01T22:18:45.723Z,100285.41
2023-02-01T22:21:12.651Z,100284.50
2023-02-01T22:23:39.243Z,100287.97
2023-02-01T22:26:09.099Z,100285.78
2023-02-01T22:28:39.548Z,100285.75
2023-02-01T22:31:07.855Z,100286.09
2023-02-01T22:33:35.000Z,100292.22
2023-02-01T22:36:02.782Z,100286.75
2023-02-01T22:38:33.924Z,100280.78
2023-02-01T22:41:03.550Z,100282.56
2023-02-01T22:43:30.413Z,100277.94
2023-02-01T22:46:05.506Z,100279.56
2023-02-01T22:48:36.057Z,100284.72
2023-02-01T22:51:03.619Z,100292.09
2023-02-01T22:53:31.213Z,100282.19
2023-02-01T22:56:02.266Z,100277.97
2023-02-01T22:58:28.917Z,100283.25
2023-02-01T23:00:55.804Z,100280.31
2023-02-01T23:03:22.821Z,100283.53
2023-02-01T23:05:49.442Z,100279.84
2023-02-01T23:08:15.984Z,100286.16
2023-02-01T23:10:42.547Z,100290.94
2023-02-01T23:13:09.196Z,100282.91
2023-02-01T23:15:39.982Z,100282.06
2023-02-01T23:18:06.691Z,100285.41
2023-02-01T23:20:33.227Z,100280.88
2023-02-01T23:22:59.776Z,100284.09
2023-02-01T23:25:26.503Z,100286.72
2023-02-01T23:27:53.274Z,100288.81
2023-02-01T23:30:20.027Z,100300.16
2023-02-01T23:32:46.537Z,100288.34
2023-02-01T23:35:13.140Z,100292.19
2023-02-01T23:37:40.845Z,100287.50
2023-02-01T23:40:08.107Z,100296.31
2023-02-01T23:42:35.129Z,100284.59
2023-02-01T23:45:03.334Z,100268.88
2023-02-01T23:47:29.954Z,100260.03
2023-02-01T23:49:56.594Z,100248.28
2023-02-01T23:52:23.498Z,100249.94
2023-02-01T23:54:50.021Z,100252.47
2023-02-01T23:57:16.581Z,100243.44
2023-02-01T23:59:43.158Z,100234.34
